Time;durP1;ratioP1;P1;durP2;ratioP2;P2;SDS_P1;SDS_P2;PMS_P1;PMS_P2;Temp;Humidity;BMP_temperature;BMP_pressure;BME280_temperature;BME280_humidity;BME280_pressure;Samples;Min_cycle;Max_cycle;Signal;HPM_P1;HPM_P2
2022/04/12 00:01:06;;;;;;;9.93;6.05;;;8.50;91.50;;;;;;4994643;28;20391;-86
2022/04/12 00:03:31;;;;;;;8.18;5.15;;;8.50;91.60;;;;;;4997405;28;20041;-86
2022/04/12 00:05:57;;;;;;;12.00;5.50;;;8.50;91.70;;;;;;4992626;28;20100;-87
2022/04/12 00:08:23;;;;;;;7.82;5.00;;;8.50;91.90;;;;;;5012967;28;20040;-86
2022/04/12 00:10:49;;;;;;;8.82;5.45;;;8.50;92.00;;;;;;4998989;28;20033;-86
2022/04/12 00:13:17;;;;;;;9.00;5.25;;;8.50;92.10;;;;;;4998260;28;20034;-86
2022/04/12 00:15:43;;;;;;;8.57;5.05;;;8.50;92.20;;;;;;4997718;28;20037;-86
2022/04/12 00:20:53;;;;;;;8.05;5.32;;;8.40;92.40;;;;;;5015019;28;20083;-86
2022/04/12 00:23:19;;;;;;;8.63;5.22;;;8.40;92.50;;;;;;4995175;28;20014;-87
2022/04/12 00:25:45;;;;;;;8.15;4.53;;;8.40;92.80;;;;;;4994933;28;20026;-86
2022/04/12 00:28:11;;;;;;;10.02;5.15;;;8.40;92.90;;;;;;4998234;28;20036;-86
2022/04/12 00:30:37;;;;;;;8.20;5.10;;;8.40;93.00;;;;;;4992243;28;20018;-87
2022/04/12 00:33:03;;;;;;;8.50;4.40;;;8.40;93.20;;;;;;4997764;28;20367;-86
2022/04/12 00:35:29;;;;;;;7.30;4.55;;;8.30;93.30;;;;;;5012537;28;20034;-86
2022/04/12 00:37:56;;;;;;;8.88;4.53;;;8.40;93.40;;;;;;4994255;28;20103;-86
2022/04/12 00:40:24;;;;;;;6.82;2.85;;;8.40;93.40;;;;;;5014707;28;20029;-86
2022/04/12 00:42:50;;;;;;;8.20;3.97;;;8.40;93.20;;;;;;4998094;28;20014;-86
2022/04/12 00:45:16;;;;;;;8.48;4.20;;;8.50;93.20;;;;;;4995577;28;20034;-86
2022/04/12 00:47:42;;;;;;;7.90;3.65;;;8.50;93.10;;;;;;5014623;28;20419;-86
2022/04/12 00:50:09;;;;;;;6.32;3.00;;;8.50;92.90;;;;;;5015296;28;20022;-86
2022/04/12 00:52:38;;;;;;;7.38;2.75;;;8.60;92.80;;;;;;5010398;28;20101;-86
2022/04/12 00:55:05;;;;;;;5.13;2.30;;;8.70;92.70;;;;;;4996782;28;20041;-86
2022/04/12 00:57:32;;;;;;;6.35;2.25;;;8.70;92.40;;;;;;5013604;28;20092;-86
2022/04/12 00:59:59;;;;;;;5.05;2.38;;;8.80;92.10;;;;;;5023443;28;20029;-87
2022/04/12 01:02:25;;;;;;;4.82;2.33;;;8.90;91.90;;;;;;5014539;28;20371;-86
2022/04/12 01:04:50;;;;;;;7.85;1.83;;;9.00;91.50;;;;;;5014580;28;20046;-86
2022/04/12 01:07:16;;;;;;;6.78;2.63;;;9.10;91.30;;;;;;5014222;28;20029;-85
2022/04/12 01:09:42;;;;;;;3.42;1.33;;;9.10;91.00;;;;;;4992108;28;20045;-86
2022/04/12 01:12:09;;;;;;;6.72;2.35;;;9.10;90.90;;;;;;4997654;28;20026;-86
2022/04/12 01:14:36;;;;;;;3.33;1.88;;;9.20;90.90;;;;;;5011714;28;20026;-86
2022/04/12 01:17:08;;;;;;;7.40;2.22;;;9.20;90.80;;;;;;5008294;28;20042;-85
2022/04/12 01:19:34;;;;;;;5.15;2.03;;;9.20;90.60;;;;;;4997151;28;20022;-86
2022/04/12 01:22:05;;;;;;;4.15;2.10;;;9.20;90.50;;;;;;4996978;28;20037;-86
2022/04/12 01:24:32;;;;;;;4.47;2.20;;;9.20;90.30;;;;;;4998422;28;20026;-86
2022/04/12 01:26:58;;;;;;;5.70;1.98;;;9.30;90.20;;;;;;4992418;28;20028;-86
2022/04/12 01:29:25;;;;;;;7.20;2.13;;;9.30;90.20;;;;;;4998701;28;20105;-86
2022/04/12 01:31:50;;;;;;;4.70;1.83;;;9.30;90.10;;;;;;4996974;28;20026;-86
2022/04/12 01:34:16;;;;;;;4.93;2.20;;;9.40;90.00;;;;;;4997991;28;20116;-86
2022/04/12 01:36:42;;;;;;;8.38;2.30;;;9.40;89.50;;;;;;4997368;28;20034;-86
2022/04/12 01:39:07;;;;;;;7.35;2.78;;;9.40;89.40;;;;;;4996193;28;20032;-86
2022/04/12 01:41:33;;;;;;;3.92;1.83;;;9.50;89.00;;;;;;4993701;28;20033;-86
2022/04/12 01:43:58;;;;;;;6.30;2.40;;;9.50;88.70;;;;;;4997894;28;20026;-87
2022/04/12 01:46:24;;;;;;;7.15;2.47;;;9.50;89.00;;;;;;4995251;28;20072;-86
2022/04/12 01:48:49;;;;;;;6.78;2.30;;;9.60;88.40;;;;;;4989052;28;20032;-86
2022/04/12 01:51:16;;;;;;;6.40;2.53;;;9.60;88.20;;;;;;4995368;28;20053;-86
2022/04/12 01:53:42;;;;;;;5.93;1.95;;;9.50;88.20;;;;;;5008151;28;20026;-86
2022/04/12 01:56:08;;;;;;;5.20;2.17;;;9.50;88.20;;;;;;5002480;28;20025;-87
2022/04/12 01:58:34;;;;;;;7.57;2.90;;;9.50;88.10;;;;;;5024354;28;20037;-86
2022/04/12 02:01:00;;;;;;;3.60;1.70;;;9.50;88.30;;;;;;5003758;28;20053;-87
2022/04/12 02:03:26;;;;;;;6.45;2.78;;;9.40;88.00;;;;;;4993010;28;20042;-86
2022/04/12 02:05:51;;;;;;;7.07;2.70;;;9.50;88.30;;;;;;5005462;28;20041;-86
2022/04/12 02:08:17;;;;;;;4.45;2.10;;;9.40;88.20;;;;;;4999242;28;20030;-87
2022/04/12 02:10:43;;;;;;;6.95;2.35;;;9.40;88.20;;;;;;4999713;28;20026;-87
2022/04/12 02:13:09;;;;;;;4.88;2.00;;;9.40;88.10;;;;;;5014899;28;20072;-87
2022/04/12 02:15:34;;;;;;;5.85;2.55;;;9.40;88.10;;;;;;4999416;28;20030;-87
2022/04/12 02:18:00;;;;;;;4.05;1.85;;;9.50;88.10;;;;;;4998882;28;20038;-87
2022/04/12 02:20:26;;;;;;;7.75;3.33;;;9.40;87.90;;;;;;4998096;28;20037;-87
2022/04/12 02:22:51;;;;;;;5.57;2.22;;;9.40;87.90;;;;;;5001188;28;20026;-87
2022/04/12 02:25:17;;;;;;;5.63;2.42;;;9.50;88.00;;;;;;5007123;28;20042;-87
2022/04/12 02:27:42;;;;;;;6.28;2.38;;;9.40;88.00;;;;;;4994472;28;20030;-87
2022/04/12 02:30:08;;;;;;;7.03;2.33;;;9.40;88.20;;;;;;4996004;28;20034;-87
2022/04/12 02:32:34;;;;;;;7.32;2.90;;;9.40;88.30;;;;;;5000889;28;20037;-87
2022/04/12 02:35:00;;;;;;;5.53;2.33;;;9.40;88.30;;;;;;4997998;28;20038;-87
2022/04/12 02:37:27;;;;;;;6.15;2.63;;;9.40;88.30;;;;;;5000614;28;20025;-87
2022/04/12 02:39:52;;;;;;;5.10;2.30;;;9.50;88.10;;;;;;4993007;28;20027;-87
2022/04/12 02:42:18;;;;;;;5.25;2.60;;;9.50;87.90;;;;;;5002416;28;20092;-87
2022/04/12 02:44:44;;;;;;;5.30;2.70;;;9.50;87.70;;;;;;4993436;28;20030;-87
2022/04/12 02:47:09;;;;;;;5.25;2.33;;;9.50;87.80;;;;;;4999482;28;20032;-87
2022/04/12 02:49:35;;;;;;;6.70;2.40;;;9.40;87.90;;;;;;4997734;28;20025;-88
2022/04/12 02:52:00;;;;;;;7.25;2.42;;;9.40;88.00;;;;;;5000464;28;20486;-86
2022/04/12 02:54:26;;;;;;;7.07;2.95;;;9.40;88.00;;;;;;5000469;28;20049;-87
2022/04/12 02:56:51;;;;;;;6.82;2.95;;;9.40;88.10;;;;;;4997813;28;20025;-86
2022/04/12 02:59:17;;;;;;;6.45;2.90;;;9.40;88.00;;;;;;5013449;28;20127;-85
2022/04/12 03:01:42;;;;;;;6.32;2.83;;;9.40;88.20;;;;;;5006635;28;20440;-87
2022/04/12 03:04:08;;;;;;;6.13;2.55;;;9.40;88.20;;;;;;5016333;28;20095;-87
2022/04/12 03:06:34;;;;;;;7.13;2.92;;;9.40;88.10;;;;;;4998710;28;20025;-87
2022/04/12 03:08:59;;;;;;;5.00;2.33;;;9.40;88.10;;;;;;5000408;28;20087;-87
2022/04/12 03:11:25;;;;;;;7.35;2.63;;;9.40;88.10;;;;;;5012916;28;20041;-87
2022/04/12 03:13:51;;;;;;;7.45;2.58;;;9.30;88.40;;;;;;4993855;28;20056;-88
2022/04/12 03:16:17;;;;;;;7.97;2.85;;;9.30;88.60;;;;;;4999104;28;20037;-86
2022/04/12 03:18:43;;;;;;;5.95;2.72;;;9.20;88.80;;;;;;4998652;28;20109;-86
2022/04/12 03:21:08;;;;;;;4.93;2.20;;;9.20;88.80;;;;;;4997541;28;20042;-87
2022/04/12 03:23:34;;;;;;;7.25;2.58;;;9.30;88.90;;;;;;4999199;28;20030;-87
2022/04/12 03:25:59;;;;;;;4.43;2.00;;;9.20;89.00;;;;;;5012708;28;20034;-87
2022/04/12 03:28:25;;;;;;;8.52;3.05;;;9.20;89.20;;;;;;4999594;28;20062;-87
2022/04/12 03:30:50;;;;;;;6.78;2.53;;;9.20;89.30;;;;;;5014874;28;20026;-87
2022/04/12 03:33:16;;;;;;;6.85;3.00;;;9.10;89.30;;;;;;4999276;28;20022;-87
2022/04/12 03:35:43;;;;;;;7.82;2.75;;;9.10;89.60;;;;;;5000862;28;20571;-86
2022/04/12 03:38:08;;;;;;;5.43;2.17;;;9.10;89.60;;;;;;4999311;28;20112;-87
2022/04/12 03:40:34;;;;;;;8.73;3.33;;;9.10;89.70;;;;;;4999572;28;20097;-87
2022/04/12 03:43:05;;;;;;;5.38;2.65;;;9.10;89.80;;;;;;4999878;28;20030;-87
2022/04/12 03:45:32;;;;;;;5.20;2.45;;;9.00;90.00;;;;;;5011173;28;20160;-87
2022/04/12 03:47:58;;;;;;;8.50;3.17;;;9.00;90.00;;;;;;4990147;28;20034;-86
2022/04/12 03:50:24;;;;;;;5.53;2.00;;;9.00;90.10;;;;;;4997077;28;20045;-87
2022/04/12 03:52:52;;;;;;;6.38;2.40;;;9.00;90.00;;;;;;4995175;28;20053;-86
2022/04/12 03:55:30;;;;;;;7.03;2.70;;;9.00;90.10;;;;;;4998071;28;20038;-87
2022/04/12 03:57:57;;;;;;;4.65;2.33;;;9.00;90.10;;;;;;4998996;28;20030;-87
2022/04/12 04:00:22;;;;;;;5.55;2.67;;;9.00;90.10;;;;;;5009892;28;20038;-87
2022/04/12 04:02:48;;;;;;;6.55;2.60;;;9.00;90.10;;;;;;4995849;28;20040;-88
2022/04/12 04:05:13;;;;;;;10.63;3.20;;;9.10;90.20;;;;;;4995103;28;20081;-86
2022/04/12 04:07:39;;;;;;;6.78;2.90;;;9.20;90.10;;;;;;5009192;28;20038;-87
2022/04/12 04:10:05;;;;;;;6.75;2.80;;;9.10;90.10;;;;;;4994723;28;20031;-87
2022/04/12 04:12:30;;;;;;;7.53;3.10;;;9.10;90.10;;;;;;4995750;28;20026;-87
2022/04/12 04:14:56;;;;;;;5.97;3.15;;;9.10;90.10;;;;;;4996076;28;20121;-88
2022/04/12 04:17:22;;;;;;;5.95;2.80;;;9.10;90.30;;;;;;4993204;28;20026;-88
2022/04/12 04:19:47;;;;;;;6.75;3.45;;;9.00;90.30;;;;;;4990401;28;20402;-87
2022/04/12 04:22:13;;;;;;;5.80;2.97;;;9.10;90.50;;;;;;4994692;28;20210;-86
2022/04/12 04:24:38;;;;;;;8.73;3.65;;;9.10;90.40;;;;;;4990864;28;20398;-87
2022/04/12 04:27:05;;;;;;;7.57;2.88;;;9.00;90.50;;;;;;4994547;28;20030;-87
2022/04/12 04:29:33;;;;;;;9.82;2.90;;;9.00;90.50;;;;;;4993584;28;20022;-87
2022/04/12 04:31:59;;;;;;;8.52;3.33;;;9.10;90.50;;;;;;4987774;28;20046;-86
2022/04/12 04:34:24;;;;;;;8.43;3.28;;;9.10;90.50;;;;;;4991082;28;20073;-87
2022/04/12 04:36:50;;;;;;;8.23;3.15;;;9.20;90.50;;;;;;5002528;28;20030;-87
2022/04/12 04:39:15;;;;;;;9.02;2.63;;;9.30;90.40;;;;;;4993744;28;21076;-87
2022/04/12 04:41:41;;;;;;;6.43;2.78;;;9.30;90.30;;;;;;4994925;28;20065;-87
2022/04/12 04:44:07;;;;;;;8.55;2.92;;;9.40;90.30;;;;;;4995759;28;20479;-87
2022/04/12 04:46:33;;;;;;;6.05;2.85;;;9.40;90.40;;;;;;4993008;28;20482;-87
2022/04/12 04:48:59;;;;;;;7.32;2.90;;;9.40;90.40;;;;;;4994038;28;20041;-87
2022/04/12 04:51:24;;;;;;;6.07;2.30;;;9.40;90.40;;;;;;4992809;28;20478;-88
2022/04/12 04:53:57;;;;;;;7.43;2.83;;;9.30;90.40;;;;;;4996403;28;20030;-87
2022/04/12 04:56:23;;;;;;;8.07;3.38;;;9.40;90.40;;;;;;4993375;28;20030;-87
2022/04/12 04:58:49;;;;;;;8.10;3.15;;;9.40;90.40;;;;;;4994501;28;20062;-87
2022/04/12 05:01:14;;;;;;;9.35;3.33;;;9.40;90.30;;;;;;4993176;28;20486;-86
2022/04/12 05:03:40;;;;;;;6.22;2.85;;;9.40;90.30;;;;;;5016201;28;20130;-86
2022/04/12 05:06:05;;;;;;;11.70;3.95;;;9.40;90.40;;;;;;4996668;28;20026;-87
2022/04/12 05:08:31;;;;;;;10.90;3.35;;;9.40;90.30;;;;;;4996086;28;20064;-87
2022/04/12 05:10:56;;;;;;;5.95;2.72;;;9.40;90.40;;;;;;5003952;28;20035;-86
2022/04/12 05:13:22;;;;;;;9.30;3.00;;;9.30;90.40;;;;;;4994784;28;20073;-86
2022/04/12 05:15:47;;;;;;;5.80;2.67;;;9.30;90.50;;;;;;4994944;28;20038;-88
2022/04/12 05:18:13;;;;;;;6.47;3.10;;;9.30;90.50;;;;;;4992944;28;20034;-86
2022/04/12 05:20:38;;;;;;;8.00;3.78;;;9.30;90.60;;;;;;4988207;28;20042;-87
2022/04/12 05:23:04;;;;;;;9.60;3.30;;;9.40;90.60;;;;;;4985011;28;20038;-87
2022/04/12 05:25:30;;;;;;;6.35;3.00;;;9.30;90.60;;;;;;4994932;28;20049;-87
2022/04/12 05:27:56;;;;;;;7.78;3.30;;;9.40;90.50;;;;;;4997337;28;20065;-87
2022/04/12 05:30:22;;;;;;;8.55;3.17;;;9.40;90.60;;;;;;4997542;28;20169;-87
2022/04/12 05:32:47;;;;;;;8.93;3.00;;;9.40;90.60;;;;;;4986501;28;20042;-87
2022/04/12 05:35:14;;;;;;;8.32;3.40;;;9.40;90.70;;;;;;4995864;28;20035;-88
2022/04/12 05:37:48;;;;;;;7.15;3.25;;;9.50;90.80;;;;;;4991356;28;20432;-87
2022/04/12 05:40:15;;;;;;;6.38;3.20;;;9.50;90.90;;;;;;4996391;28;20030;-87
2022/04/12 05:42:41;;;;;;;5.75;3.30;;;9.40;91.10;;;;;;5000091;28;20088;-87
2022/04/12 05:45:08;;;;;;;12.82;3.65;;;9.40;91.40;;;;;;5002238;28;20031;-88
2022/04/12 05:47:45;;;;;;;6.53;3.38;;;9.30;91.50;;;;;;4995437;28;20059;-87
2022/04/12 05:50:12;;;;;;;10.75;3.58;;;9.30;91.50;;;;;;5000771;28;20038;-88
2022/04/12 05:52:38;;;;;;;6.68;3.63;;;9.30;91.70;;;;;;4995560;28;20022;-88
2022/04/12 05:55:09;;;;;;;10.32;3.60;;;9.30;91.80;;;;;;4998570;28;20071;-87
2022/04/12 05:57:36;;;;;;;6.03;3.22;;;9.30;91.80;;;;;;5004560;28;20426;-88
2022/04/12 06:00:04;;;;;;;6.72;3.05;;;9.30;91.80;;;;;;4997470;28;20129;-88
2022/04/12 06:02:29;;;;;;;6.88;3.05;;;9.40;91.70;;;;;;5000628;28;20019;-88
2022/04/12 06:04:55;;;;;;;7.47;3.58;;;9.50;91.60;;;;;;5001164;28;20099;-88
2022/04/12 06:07:20;;;;;;;8.65;3.53;;;9.60;91.60;;;;;;4998178;28;20037;-87
2022/04/12 06:09:46;;;;;;;8.02;3.38;;;9.60;91.60;;;;;;4998078;28;20053;-88
2022/04/12 06:12:11;;;;;;;5.28;2.70;;;9.60;91.50;;;;;;5004684;28;20100;-88
2022/04/12 06:14:36;;;;;;;8.38;3.70;;;9.70;91.50;;;;;;4996362;28;20052;-89
2022/04/12 06:17:02;;;;;;;8.50;3.08;;;9.70;91.20;;;;;;5012133;28;20049;-88
2022/04/12 06:19:28;;;;;;;8.32;3.85;;;9.80;91.10;;;;;;4999773;28;20049;-88
2022/04/12 06:21:53;;;;;;;6.50;3.28;;;9.90;91.20;;;;;;4997620;28;20108;-88
2022/04/12 06:24:19;;;;;;;9.93;4.47;;;10.00;91.10;;;;;;5017371;28;21369;-88
2022/04/12 06:26:44;;;;;;;8.60;3.47;;;10.00;91.10;;;;;;4999778;28;20049;-87
2022/04/12 06:29:10;;;;;;;7.78;3.25;;;10.10;91.00;;;;;;4998814;28;20029;-87
2022/04/12 06:31:35;;;;;;;9.07;3.65;;;10.20;91.00;;;;;;5015771;28;20025;-88
2022/04/12 06:34:01;;;;;;;7.30;3.65;;;10.30;90.90;;;;;;4994712;28;20029;-88
2022/04/12 06:36:26;;;;;;;7.93;3.20;;;10.40;90.70;;;;;;5011852;28;20030;-88
2022/04/12 06:38:53;;;;;;;8.63;3.50;;;10.50;90.50;;;;;;5009899;28;20553;-88
2022/04/12 06:41:19;;;;;;;9.90;4.28;;;10.60;90.20;;;;;;4998704;28;20481;-89
2022/04/12 06:43:44;;;;;;;10.00;3.90;;;10.80;90.20;;;;;;5000848;28;20022;-88
2022/04/12 06:46:10;;;;;;;8.73;3.55;;;10.80;89.90;;;;;;5001787;28;20030;-88
2022/04/12 06:48:35;;;;;;;8.60;3.30;;;10.80;90.10;;;;;;5017923;28;20057;-89
2022/04/12 06:51:01;;;;;;;7.28;3.70;;;10.80;89.40;;;;;;5000641;28;20041;-89
2022/04/12 06:53:26;;;;;;;7.47;3.78;;;10.80;89.40;;;;;;5002115;28;20052;-88
2022/04/12 06:55:52;;;;;;;6.68;3.40;;;11.00;89.60;;;;;;4997167;28;20041;-88
2022/04/12 06:58:18;;;;;;;6.30;3.67;;;11.10;89.40;;;;;;4999917;28;20498;-88
2022/04/12 07:00:44;;;;;;;8.13;4.13;;;11.20;89.00;;;;;;4997320;28;20041;-89
2022/04/12 07:03:10;;;;;;;9.52;4.13;;;11.20;88.40;;;;;;5000995;28;20049;-88
2022/04/12 07:05:35;;;;;;;11.45;4.47;;;11.20;88.20;;;;;;5001472;28;20030;-89
2022/04/12 07:08:01;;;;;;;9.60;3.75;;;11.10;88.10;;;;;;5001219;28;20032;-88
2022/04/12 07:10:26;;;;;;;11.60;4.22;;;11.10;88.60;;;;;;5011988;28;20037;-89
2022/04/12 07:12:53;;;;;;;8.23;3.78;;;11.20;88.90;;;;;;5010226;28;20034;-88
2022/04/12 07:15:20;;;;;;;7.95;3.67;;;11.20;89.20;;;;;;5001590;28;20125;-88
2022/04/12 07:17:45;;;;;;;8.20;4.07;;;11.30;88.90;;;;;;5002619;28;20033;-89
2022/04/12 07:20:12;;;;;;;7.38;3.55;;;11.40;88.70;;;;;;5013211;28;20041;-88
2022/04/12 07:22:37;;;;;;;7.50;3.78;;;11.60;88.60;;;;;;5017482;28;20064;-88
2022/04/12 07:25:03;;;;;;;8.40;4.07;;;11.80;88.20;;;;;;5017448;28;20030;-88
2022/04/12 07:27:36;;;;;;;8.73;4.03;;;11.90;87.80;;;;;;4999963;28;20096;-88
2022/04/12 07:30:04;;;;;;;11.10;4.07;;;12.10;87.00;;;;;;5012373;28;20030;-88
2022/04/12 07:32:29;;;;;;;14.88;3.97;;;12.20;87.10;;;;;;5006180;28;20073;-88
2022/04/12 07:34:55;;;;;;;9.25;3.97;;;12.40;85.90;;;;;;4999817;28;20462;-88
2022/04/12 07:37:20;;;;;;;9.43;4.43;;;12.50;85.90;;;;;;5000154;28;20034;-88
2022/04/12 07:39:46;;;;;;;9.80;4.03;;;12.60;85.70;;;;;;5000432;28;20410;-88
2022/04/12 07:42:11;;;;;;;9.63;3.67;;;12.70;85.90;;;;;;5000903;28;20061;-88
2022/04/12 07:44:37;;;;;;;7.72;4.07;;;12.90;86.30;;;;;;5002270;28;20017;-88
2022/04/12 07:47:03;;;;;;;13.75;3.80;;;13.00;85.90;;;;;;5010057;28;20025;-89
2022/04/12 07:49:28;;;;;;;6.85;4.20;;;13.10;86.00;;;;;;5001121;28;20033;-88
2022/04/12 07:51:54;;;;;;;6.10;3.42;;;13.20;86.00;;;;;;5000232;28;20033;-88
2022/04/12 07:54:19;;;;;;;7.80;4.55;;;13.30;85.50;;;;;;4982173;28;20105;-88
2022/04/12 07:56:45;;;;;;;8.52;4.18;;;13.40;85.50;;;;;;4991335;28;20041;-87
2022/04/12 07:59:10;;;;;;;7.22;3.58;;;13.60;85.90;;;;;;5000206;28;20478;-88
2022/04/12 08:01:37;;;;;;;7.15;3.45;;;13.60;85.80;;;;;;4999281;28;20022;-89
2022/04/12 08:04:02;;;;;;;8.68;3.33;;;13.80;85.10;;;;;;5003479;28;20050;-88
2022/04/12 08:06:28;;;;;;;11.80;4.57;;;13.90;85.20;;;;;;5011855;28;21340;-88
2022/04/12 08:08:53;;;;;;;8.90;4.00;;;14.00;84.20;;;;;;4999666;28;20044;-87
2022/04/12 08:11:19;;;;;;;12.68;4.63;;;14.00;84.00;;;;;;5002740;28;20022;-88
2022/04/12 08:13:45;;;;;;;6.88;3.60;;;14.10;83.60;;;;;;5001784;28;20029;-89
2022/04/12 08:16:11;;;;;;;6.82;3.17;;;14.30;83.10;;;;;;4999891;28;20042;-88
2022/04/12 08:18:37;;;;;;;6.82;3.45;;;14.30;83.00;;;;;;4999953;28;20022;-88
2022/04/12 08:21:02;;;;;;;9.35;3.28;;;14.40;82.80;;;;;;5007688;28;20037;-89
2022/04/12 08:23:28;;;;;;;5.85;2.60;;;14.50;82.80;;;;;;5008493;28;20026;-89
2022/04/12 08:25:53;;;;;;;6.50;2.92;;;14.60;83.20;;;;;;4998669;28;20097;-88
2022/04/12 08:28:19;;;;;;;7.22;4.47;;;14.60;82.80;;;;;;4994222;28;20076;-87
2022/04/12 08:30:45;;;;;;;5.32;3.08;;;14.70;82.80;;;;;;4994582;28;20029;-86
2022/04/12 08:33:11;;;;;;;9.15;3.65;;;14.90;83.00;;;;;;4998615;28;20022;-88
2022/04/12 08:35:36;;;;;;;7.40;2.90;;;15.00;83.10;;;;;;4996441;28;20042;-88
2022/04/12 08:38:02;;;;;;;7.63;3.78;;;15.10;83.20;;;;;;5015791;28;20041;-88
2022/04/12 08:40:28;;;;;;;12.55;3.17;;;15.10;83.20;;;;;;4999026;28;20389;-88
2022/04/12 08:42:54;;;;;;;6.07;2.83;;;15.30;83.50;;;;;;5007022;28;20057;-88
2022/04/12 08:45:21;;;;;;;7.68;3.03;;;15.40;83.00;;;;;;4997278;28;20022;-89
2022/04/12 08:47:46;;;;;;;4.68;2.70;;;15.50;82.40;;;;;;5015960;28;20064;-85
2022/04/12 08:50:12;;;;;;;5.80;2.95;;;15.60;81.20;;;;;;5005167;28;20033;-86
2022/04/12 08:52:38;;;;;;;6.57;2.78;;;15.60;80.80;;;;;;4986259;28;20022;-86
2022/04/12 08:55:05;;;;;;;6.03;2.58;;;15.80;79.60;;;;;;5011268;28;20109;-86
2022/04/12 08:57:31;;;;;;;5.75;3.25;;;15.90;79.50;;;;;;4999125;28;20056;-86
2022/04/12 08:59:56;;;;;;;5.05;2.95;;;15.90;80.20;;;;;;4998063;28;20030;-86
2022/04/12 09:02:23;;;;;;;5.90;2.55;;;16.00;80.30;;;;;;4998009;28;20049;-86
2022/04/12 09:04:48;;;;;;;5.78;3.30;;;16.00;79.30;;;;;;4998729;28;20397;-86
2022/04/12 09:07:14;;;;;;;7.40;2.85;;;16.10;79.40;;;;;;4998909;28;20030;-87
2022/04/12 09:09:41;;;;;;;5.80;2.25;;;16.10;79.30;;;;;;4999201;28;20112;-88
2022/04/12 09:12:09;;;;;;;7.68;2.70;;;16.30;79.40;;;;;;4998425;28;20022;-88
2022/04/12 09:14:58;;;;;;;4.55;2.40;;;16.40;79.70;;;;;;4998656;28;20521;-86
2022/04/12 09:17:31;;;;;;;7.97;2.95;;;16.60;79.10;;;;;;4996503;28;20520;-88
2022/04/12 09:19:57;;;;;;;4.90;2.38;;;16.70;78.40;;;;;;4997491;28;20117;-87
2022/04/12 09:22:24;;;;;;;6.63;2.97;;;16.80;78.00;;;;;;5013429;28;20053;-85
2022/04/12 09:24:55;;;;;;;5.78;2.80;;;16.80;77.40;;;;;;4996547;28;20440;-85
2022/04/12 09:27:25;;;;;;;7.22;3.03;;;16.90;77.10;;;;;;4997075;28;20097;-87
2022/04/12 09:29:53;;;;;;;4.63;2.75;;;16.90;76.80;;;;;;4997890;28;20022;-87
2022/04/12 09:32:23;;;;;;;5.85;2.70;;;17.00;76.90;;;;;;4996729;28;20056;-87
2022/04/12 09:34:50;;;;;;;6.35;3.00;;;17.10;76.60;;;;;;4998591;28;20112;-87
2022/04/12 09:37:16;;;;;;;8.77;3.33;;;17.20;76.40;;;;;;4990864;28;20030;-87
2022/04/12 09:39:42;;;;;;;4.38;2.35;;;17.30;77.20;;;;;;5000245;28;20030;-87
2022/04/12 09:42:08;;;;;;;6.32;2.80;;;17.50;75.90;;;;;;5014661;28;20045;-88
2022/04/12 09:44:33;;;;;;;5.03;2.78;;;17.50;75.50;;;;;;4995773;28;20029;-87
2022/04/12 09:47:01;;;;;;;7.60;3.30;;;17.60;75.20;;;;;;5011199;28;20022;-87
2022/04/12 09:49:26;;;;;;;4.57;2.85;;;17.70;75.40;;;;;;4995624;28;20057;-86
2022/04/12 09:51:52;;;;;;;5.70;2.53;;;17.80;75.90;;;;;;5008137;28;20491;-87
2022/04/12 09:54:23;;;;;;;7.07;2.45;;;17.80;76.10;;;;;;4983133;28;20037;-88
2022/04/12 09:56:50;;;;;;;4.90;2.60;;;18.00;75.10;;;;;;4998801;28;20018;-87
2022/04/12 09:59:16;;;;;;;4.45;2.00;;;18.10;74.50;;;;;;4998080;28;20034;-87
2022/04/12 10:01:42;;;;;;;5.78;2.67;;;18.10;74.70;;;;;;4994353;28;20579;-86
2022/04/12 10:04:10;;;;;;;5.10;2.40;;;18.20;74.10;;;;;;4992583;28;20145;-85
2022/04/12 10:06:40;;;;;;;5.75;2.70;;;18.30;74.00;;;;;;4985754;28;20025;-86
2022/04/12 10:09:09;;;;;;;5.07;2.40;;;18.40;73.40;;;;;;4997796;28;20026;-85
2022/04/12 10:11:36;;;;;;;4.53;2.35;;;18.50;73.00;;;;;;4993965;28;20049;-85
2022/04/12 10:14:01;;;;;;;6.32;2.70;;;18.60;73.60;;;;;;4996035;28;20176;-86
2022/04/12 10:16:27;;;;;;;7.68;2.75;;;18.60;72.90;;;;;;4998492;28;20124;-85
2022/04/12 10:18:54;;;;;;;4.07;2.03;;;18.70;72.60;;;;;;4996592;28;20033;-86
2022/04/12 10:21:22;;;;;;;6.82;2.30;;;18.80;72.90;;;;;;4994643;28;20058;-84
2022/04/12 10:23:53;;;;;;;4.53;1.60;;;18.90;71.20;;;;;;5010433;28;20034;-84
2022/04/12 10:26:22;;;;;;;7.05;2.17;;;18.90;70.40;;;;;;4995493;28;20026;-84
2022/04/12 10:28:59;;;;;;;5.22;1.60;;;19.00;70.40;;;;;;5013647;28;20030;-84
2022/04/12 10:31:26;;;;;;;7.03;2.40;;;19.10;70.80;;;;;;4997284;28;20025;-83
2022/04/12 10:33:53;;;;;;;5.22;1.80;;;19.20;71.10;;;;;;4996061;28;20030;-83
2022/04/12 10:36:18;;;;;;;3.92;2.00;;;19.30;69.70;;;;;;5000146;28;20413;-83
2022/04/12 10:38:44;;;;;;;4.18;1.63;;;19.30;69.80;;;;;;4997829;28;20018;-84
2022/04/12 10:41:34;;;;;;;6.32;2.35;;;19.50;69.40;;;;;;4989990;28;20030;-84
2022/04/12 10:44:00;;;;;;;4.05;1.52;;;19.60;68.80;;;;;;4988820;28;20030;-84
2022/04/12 10:46:46;;;;;;;4.78;1.70;;;19.70;68.70;;;;;;5011990;28;20032;-86
2022/04/12 10:49:12;;;;;;;5.95;3.30;;;19.80;67.90;;;;;;4992872;28;20042;-87
2022/04/12 10:51:41;;;;;;;6.50;1.70;;;19.80;67.40;;;;;;4996447;28;20026;-87
2022/04/12 10:54:30;;;;;;;5.25;2.40;;;19.80;67.60;;;;;;5009747;28;20032;-86
2022/04/12 10:57:22;;;;;;;6.10;2.03;;;19.80;66.80;;;;;;4996944;28;20044;-87
2022/04/12 10:59:58;;;;;;;;;;;19.60;66.90;;;;;;5012850;28;20026;-88
2022/04/12 11:02:29;;;;;;;4.63;1.83;;;19.60;67.40;;;;;;5013853;28;20289;-88
2022/04/12 11:04:55;;;;;;;6.43;2.17;;;19.60;67.30;;;;;;4983526;28;20045;-88
2022/04/12 11:07:32;;;;;;;7.40;2.13;;;19.80;67.00;;;;;;5005859;28;20034;-89
2022/04/12 11:10:13;;;;;;;6.15;2.20;;;20.00;66.90;;;;;;4991573;28;20056;-89
2022/04/12 11:12:43;;;;;;;5.85;2.30;;;20.10;65.30;;;;;;4980983;28;20061;-89
2022/04/12 11:15:27;;;;;;;4.78;2.20;;;20.30;65.50;;;;;;5003927;28;20034;-89
2022/04/12 11:18:29;;;;;;;7.43;2.33;;;20.40;64.80;;;;;;4997692;28;20127;-88
2022/04/12 11:21:00;;;;;;;5.20;2.05;;;20.40;64.50;;;;;;4999573;28;20489;-88
2022/04/12 11:23:45;;;;;;;8.85;2.70;;;20.60;64.80;;;;;;5015634;28;20026;-88
2022/04/12 11:26:45;;;;;;;6.75;2.75;;;20.80;64.20;;;;;;5013053;28;20033;-88
2022/04/12 11:29:12;;;;;;;4.65;2.17;;;20.90;63.60;;;;;;4989577;28;20113;-87
2022/04/12 11:31:50;;;;;;;5.70;2.33;;;20.80;63.20;;;;;;5013668;28;20104;-88
2022/04/12 11:34:17;;;;;;;5.90;2.22;;;20.80;63.80;;;;;;4995089;28;20129;-88
2022/04/12 11:36:51;;;;;;;5.43;2.30;;;20.80;65.00;;;;;;5003101;28;20045;-88
2022/04/12 11:39:21;;;;;;;6.43;2.47;;;21.00;64.00;;;;;;5011335;28;20026;-87
2022/04/12 11:41:48;;;;;;;5.35;2.63;;;21.00;63.80;;;;;;5009044;28;20101;-88
2022/04/12 11:44:14;;;;;;;6.57;2.30;;;21.00;63.80;;;;;;4996579;28;20030;-88
2022/04/12 11:46:40;;;;;;;4.47;1.83;;;21.00;63.60;;;;;;5006983;28;20101;-88
2022/04/12 11:49:10;;;;;;;4.03;2.00;;;21.00;63.30;;;;;;4991490;28;20065;-87
2022/04/12 11:52:03;;;;;;;7.78;2.80;;;21.00;63.40;;;;;;5013588;28;20101;-87
2022/04/12 11:54:39;;;;;;;9.77;3.97;;;21.00;63.50;;;;;;5008816;28;20060;-87
2022/04/12 11:57:12;;;;;;;7.95;2.63;;;21.10;63.00;;;;;;5008051;28;20478;-88
2022/04/12 11:59:51;;;;;;;7.22;2.60;;;21.20;62.60;;;;;;5006422;28;20036;-88
2022/04/12 12:02:19;;;;;;;5.43;2.03;;;21.30;62.80;;;;;;5014893;28;20021;-88
2022/04/12 12:04:53;;;;;;;7.00;2.25;;;21.30;62.60;;;;;;4994039;28;20046;-88
2022/04/12 12:07:19;;;;;;;6.57;2.00;;;21.20;61.90;;;;;;4996255;28;20062;-88
2022/04/12 12:09:56;;;;;;;6.05;2.15;;;21.10;61.70;;;;;;5000820;28;20036;-87
2022/04/12 12:12:45;;;;;;;5.38;2.10;;;21.10;62.20;;;;;;4994902;28;20825;-88
2022/04/12 12:15:12;;;;;;;6.53;2.33;;;21.20;62.30;;;;;;4987131;28;20034;-87
2022/04/12 12:17:39;;;;;;;5.22;1.80;;;21.50;62.10;;;;;;5012757;28;20014;-87
2022/04/12 12:20:07;;;;;;;7.22;1.92;;;21.70;60.70;;;;;;4997113;28;20033;-88
2022/04/12 12:22:41;;;;;;;3.83;2.05;;;21.90;60.10;;;;;;4996368;28;20057;-87
2022/04/12 12:25:07;;;;;;;7.38;1.83;;;22.00;59.80;;;;;;5001366;28;20061;-88
2022/04/12 12:27:34;;;;;;;6.75;2.35;;;21.90;59.20;;;;;;4992316;28;20033;-88
2022/04/12 12:30:03;;;;;;;5.10;1.90;;;21.80;58.90;;;;;;4996917;28;20062;-88
2022/04/12 12:32:37;;;;;;;5.60;1.92;;;21.80;58.70;;;;;;5013279;28;20057;-87
2022/04/12 12:35:05;;;;;;;4.80;1.58;;;21.80;59.00;;;;;;4996645;28;20515;-88
2022/04/12 12:37:31;;;;;;;4.82;1.48;;;21.80;58.70;;;;;;5010262;28;20042;-88
2022/04/12 12:39:57;;;;;;;4.63;1.75;;;21.90;58.10;;;;;;4995876;28;20030;-87
2022/04/12 12:42:23;;;;;;;6.32;1.67;;;21.90;57.90;;;;;;4996837;28;20060;-88
2022/04/12 12:44:48;;;;;;;4.95;1.23;;;22.00;57.80;;;;;;4996264;28;20018;-88
2022/04/12 12:47:15;;;;;;;4.47;1.88;;;22.00;58.20;;;;;;5012004;28;20485;-88
2022/04/12 12:49:41;;;;;;;8.02;1.52;;;22.00;57.80;;;;;;4996288;28;20068;-88
2022/04/12 12:52:13;;;;;;;8.43;1.52;;;22.00;57.30;;;;;;4996313;28;20025;-88
2022/04/12 12:54:39;;;;;;;;;;;22.00;57.20;;;;;;4997198;28;20088;-88
2022/04/12 12:57:08;;;;;;;8.05;2.05;;;21.90;57.40;;;;;;5005904;28;20357;-88